Time;durP1;ratioP1;P1;durP2;ratioP2;P2;SDS_P1;SDS_P2;PMS_P1;PMS_P2;Temp;Humidity;BMP_temperature;BMP_pressure;BME280_temperature;BME280_humidity;BME280_pressure;Samples;Min_cycle;Max_cycle;Signal;HPM_P1;HPM_P2
2023/01/29 00:01:24;;;;;;;20.93;9.63;;;;;;;1.97;84.65;94927.66;5052154;28;20941;-75
2023/01/29 00:03:51;;;;;;;18.10;9.13;;;;;;;2.09;84.62;94938.56;5067851;28;20178;-76
2023/01/29 00:06:17;;;;;;;17.67;9.35;;;;;;;2.15;84.31;94936.16;5061687;28;20415;-76
2023/01/29 00:08:42;;;;;;;18.63;10.03;;;;;;;2.15;84.13;94940.53;5053110;28;20193;-76
2023/01/29 00:11:09;;;;;;;17.45;8.68;;;;;;;2.19;84.43;94940.06;5052903;28;20423;-76
2023/01/29 00:13:35;;;;;;;18.33;8.17;;;;;;;2.17;84.48;94942.00;5061028;28;20209;-75
2023/01/29 00:16:01;;;;;;;17.00;7.77;;;;;;;2.17;84.45;94941.19;5072773;28;20230;-76
2023/01/29 00:18:28;;;;;;;22.33;10.18;;;;;;;2.15;84.23;94949.16;5072575;28;20492;-75
2023/01/29 00:20:53;;;;;;;18.55;9.05;;;;;;;2.10;85.04;94950.56;5071378;28;20900;-75
2023/01/29 00:23:19;;;;;;;14.23;7.70;;;;;;;2.11;84.92;94953.03;5055423;28;20182;-75
2023/01/29 00:25:45;;;;;;;15.43;8.37;;;;;;;2.11;85.10;94949.59;5052507;28;20168;-75
2023/01/29 00:28:11;;;;;;;16.60;9.40;;;;;;;2.01;84.93;94935.94;5064964;28;20402;-75
2023/01/29 00:30:37;;;;;;;16.02;9.38;;;;;;;2.05;85.28;94951.06;5071193;28;20473;-75
2023/01/29 00:33:04;;;;;;;17.80;8.23;;;;;;;2.02;85.16;94942.75;5054760;28;20305;-76
2023/01/29 00:35:30;;;;;;;15.47;7.87;;;;;;;2.01;85.20;94943.72;5059210;28;20217;-75
2023/01/29 00:37:55;;;;;;;19.50;8.47;;;;;;;2.10;85.23;94953.97;5052246;28;20238;-75
2023/01/29 00:40:21;;;;;;;18.60;9.32;;;;;;;2.14;85.80;94957.09;5051054;28;20437;-75
2023/01/29 00:45:32;;;;;;;16.67;8.98;;;;;;;2.09;85.18;94956.72;5050890;28;20491;-75
2023/01/29 00:47:57;;;;;;;12.13;7.60;;;;;;;1.97;85.86;94958.00;5050594;28;20434;-75
2023/01/29 00:50:23;;;;;;;14.23;7.77;;;;;;;1.98;86.15;94947.47;5052113;28;20183;-76
2023/01/29 00:52:50;;;;;;;13.63;6.93;;;;;;;2.07;86.06;94956.91;5052022;28;20204;-76
2023/01/29 00:55:16;;;;;;;15.10;7.63;;;;;;;2.15;85.58;94964.72;5050618;28;20321;-75
2023/01/29 00:57:41;;;;;;;12.27;7.43;;;;;;;2.18;85.62;94953.19;5060010;28;20186;-76
2023/01/29 01:00:10;;;;;;;10.83;6.90;;;;;;;2.21;85.79;94958.91;5072081;28;20243;-76
2023/01/29 01:05:20;;;;;;;9.53;6.27;;;;;;;2.22;85.61;94949.31;5072045;28;20189;-76
2023/01/29 01:07:50;;;;;;;11.27;7.07;;;;;;;2.28;85.28;94954.69;5070973;28;20843;-75
2023/01/29 01:10:25;;;;;;;11.10;6.37;;;;;;;2.32;84.99;94960.41;5072036;28;20182;-75
2023/01/29 01:13:02;;;;;;;10.10;6.67;;;;;;;2.19;84.80;94957.41;5070403;28;20904;-75
2023/01/29 01:15:30;;;;;;;10.25;6.35;;;;;;;2.15;85.21;94951.75;5070902;28;20502;-75
2023/01/29 01:17:57;;;;;;;11.15;7.05;;;;;;;2.07;84.97;94951.72;5055454;28;20999;-75
2023/01/29 01:20:25;;;;;;;11.40;6.70;;;;;;;2.12;85.34;94953.84;5050199;28;20414;-75
2023/01/29 01:22:52;;;;;;;10.70;5.63;;;;;;;2.08;84.92;94947.31;5042732;28;20265;-75
2023/01/29 01:25:18;;;;;;;8.00;5.53;;;;;;;2.13;85.33;94950.28;5051663;28;20250;-75
2023/01/29 01:27:43;;;;;;;10.80;6.67;;;;;;;2.09;85.05;94949.75;5050018;28;21048;-75
2023/01/29 01:30:14;;;;;;;12.10;6.63;;;;;;;2.08;85.23;94944.72;5050924;28;20404;-76
2023/01/29 01:32:40;;;;;;;9.60;6.30;;;;;;;2.01;85.92;94938.53;5050051;28;20422;-75
2023/01/29 01:35:07;;;;;;;11.48;7.38;;;;;;;1.99;86.24;94956.84;5049808;28;20972;-75
2023/01/29 01:37:32;;;;;;;9.80;5.90;;;;;;;2.03;85.86;94952.16;5051225;28;20170;-75
2023/01/29 01:39:58;;;;;;;10.80;6.73;;;;;;;2.15;85.41;94943.97;5051687;28;20410;-75
2023/01/29 01:42:31;;;;;;;9.57;6.30;;;;;;;2.14;85.05;94954.50;5070256;28;20394;-75
2023/01/29 01:45:05;;;;;;;9.53;6.37;;;;;;;2.17;85.13;94947.19;5071357;28;20166;-75
2023/01/29 01:47:54;;;;;;;10.20;6.60;;;;;;;2.22;84.92;94950.16;5050106;28;20422;-75
2023/01/29 01:50:22;;;;;;;9.82;6.78;;;;;;;2.23;84.81;94937.97;5049295;28;20413;-75
2023/01/29 01:52:54;;;;;;;7.88;5.57;;;;;;;2.32;84.18;94955.22;5048407;28;20406;-75
2023/01/29 01:55:24;;;;;;;6.17;4.60;;;;;;;2.20;84.27;94959.88;5050892;28;20195;-75
2023/01/29 01:58:01;;;;;;;7.97;5.78;;;;;;;2.25;84.79;94962.78;5065944;28;20413;-75
2023/01/29 02:00:26;;;;;;;11.83;6.33;;;;;;;2.20;85.06;94959.88;5070745;28;20231;-75
2023/01/29 02:11:15;;;;;;;11.50;6.73;;;;;;;2.05;86.05;94964.03;5059272;28;20406;-75
2023/01/29 02:13:42;;;;;;;11.48;6.75;;;;;;;2.12;86.63;94964.22;5049908;28;20442;-75
2023/01/29 02:16:07;;;;;;;10.47;6.37;;;;;;;2.11;86.41;94958.22;5049243;28;20219;-75
2023/01/29 02:18:36;;;;;;;11.07;5.93;;;;;;;2.14;86.07;94963.09;5049340;28;20179;-75
2023/01/29 02:21:35;;;;;;;8.17;5.27;;;;;;;2.06;86.19;94963.06;5049331;28;20666;-75
2023/01/29 02:24:39;;;;;;;10.38;6.28;;;;;;;1.92;86.67;94963.63;5066761;28;20406;-75
2023/01/29 02:27:13;;;;;;;9.38;7.10;;;;;;;1.92;86.72;94968.00;5038007;28;20423;-75
2023/01/29 02:29:48;;;;;;;9.33;5.43;;;;;;;1.87;86.86;94956.34;5050818;28;20228;-75
2023/01/29 02:32:19;;;;;;;10.33;6.10;;;;;;;1.96;86.92;94969.34;5059511;28;20185;-75
2023/01/29 02:38:16;;;;;;;12.67;6.43;;;;;;;2.01;87.31;94983.47;5062722;28;20236;-75
2023/01/29 02:41:03;;;;;;;9.98;6.40;;;;;;;1.90;87.64;94979.34;5043798;28;20414;-75
2023/01/29 02:43:37;;;;;;;9.52;6.28;;;;;;;1.93;87.64;94982.63;5049330;28;20418;-75
2023/01/29 02:46:30;;;;;;;9.70;6.40;;;;;;;1.92;87.25;94973.19;5049373;28;20410;-75
2023/01/29 02:49:14;;;;;;;10.27;5.77;;;;;;;1.92;87.69;94975.78;5050675;28;20206;-75
2023/01/29 02:51:50;;;;;;;11.07;6.35;;;;;;;2.01;87.69;94977.47;5066932;28;20444;-75
2023/01/29 02:54:23;;;;;;;9.40;5.60;;;;;;;2.03;87.04;94980.72;5041967;28;20181;-75
2023/01/29 02:57:04;;;;;;;10.17;6.60;;;;;;;1.97;87.39;94989.13;5061271;28;20662;-75
2023/01/29 02:59:39;;;;;;;10.80;6.13;;;;;;;2.02;87.26;94981.69;5050731;28;20189;-75
2023/01/29 03:02:15;;;;;;;14.43;8.30;;;;;;;1.88;87.85;94976.13;5049644;28;20511;-75
2023/01/29 03:04:45;;;;;;;17.15;10.05;;;;;;;1.94;87.67;94979.06;5049363;28;20962;-75
2023/01/29 03:08:03;;;;;;;13.82;8.57;;;;;;;1.98;88.28;94981.22;5049214;28;20507;-75
2023/01/29 03:10:15;;;;;;;18.43;9.17;;;;;;;1.99;87.60;94982.81;5046485;28;20199;-75
2023/01/29 03:12:43;;;;;;;16.00;8.97;;;;;;;2.02;87.65;94979.91;5064394;28;20556;-76
2023/01/29 03:15:15;;;;;;;15.33;8.00;;;;;;;2.00;88.06;94983.63;5073534;28;20194;-75
2023/01/29 03:17:48;;;;;;;12.00;7.50;;;;;;;2.07;88.03;94984.66;5074120;28;20185;-75
2023/01/29 03:20:20;;;;;;;11.38;7.38;;;;;;;2.05;88.25;94983.97;5072974;28;20410;-75
2023/01/29 03:22:52;;;;;;;13.30;8.38;;;;;;;1.94;87.93;94984.25;5072118;28;20409;-75
2023/01/29 03:33:54;;;;;;;14.17;8.13;;;;;;;1.84;88.26;94987.78;5073413;28;20684;-75
2023/01/29 03:36:38;;;;;;;17.23;9.10;;;;;;;1.97;88.13;94989.13;5071733;28;20437;-75
2023/01/29 03:39:05;;;;;;;13.07;7.18;;;;;;;2.12;86.71;94990.19;5071784;28;20409;-75
2023/01/29 03:41:36;;;;;;;8.67;5.50;;;;;;;2.10;86.59;94994.69;5055754;28;20171;-75
2023/01/29 03:44:01;;;;;;;12.43;6.30;;;;;;;2.19;86.14;94996.38;5052788;28;20447;-75
2023/01/29 03:47:16;;;;;;;8.43;5.07;;;;;;;2.12;86.21;94993.59;5053469;28;20697;-76
2023/01/29 03:50:16;;;;;;;14.23;7.60;;;;;;;2.06;86.74;94991.63;5051936;28;20404;-75
2023/01/29 03:52:51;;;;;;;10.38;6.40;;;;;;;2.01;87.00;94987.84;5050193;28;20941;-75
2023/01/29 03:55:34;;;;;;;10.75;6.35;;;;;;;1.80;87.06;94988.25;5052894;28;20440;-75
2023/01/29 03:58:07;;;;;;;8.43;5.72;;;;;;;1.90;87.60;94997.53;5051662;28;20785;-75
2023/01/29 04:00:50;;;;;;;8.65;5.15;;;;;;;1.84;86.94;94987.78;5052795;28;20903;-75
2023/01/29 04:03:19;;;;;;;9.00;5.70;;;;;;;1.92;87.35;94989.59;5051571;28;20506;-75
2023/01/29 04:06:08;;;;;;;8.97;5.30;;;;;;;2.03;87.23;94981.53;5057198;28;20257;-75
2023/01/29 04:08:39;;;;;;;8.37;5.80;;;;;;;2.00;87.15;94986.22;5053261;28;20942;-75
2023/01/29 04:11:10;;;;;;;7.60;5.13;;;;;;;2.05;86.91;94991.78;5052848;28;20175;-75
2023/01/29 04:13:37;;;;;;;8.90;5.77;;;;;;;2.01;86.88;94990.44;5068721;28;20171;-75
2023/01/29 04:16:07;;;;;;;13.63;7.00;;;;;;;2.10;86.82;95002.50;5072080;28;20437;-75
2023/01/29 04:18:33;;;;;;;13.10;7.73;;;;;;;2.13;87.12;95005.59;5072171;28;20422;-75
2023/01/29 04:21:00;;;;;;;14.40;9.43;;;;;;;2.08;87.22;95004.41;5070230;28;20417;-75
2023/01/29 04:23:26;;;;;;;12.20;8.10;;;;;;;2.06;86.67;95001.19;5072605;28;20178;-75
2023/01/29 04:25:57;;;;;;;12.73;9.17;;;;;;;2.02;87.14;94999.88;5062154;28;20538;-75
2023/01/29 04:28:30;;;;;;;14.83;9.70;;;;;;;2.05;86.88;95004.75;5052797;28;20189;-75
2023/01/29 04:31:02;;;;;;;19.42;10.93;;;;;;;2.09;86.75;94996.47;5051842;28;20414;-75
2023/01/29 04:33:34;;;;;;;10.60;7.80;;;;;;;2.15;87.03;95005.44;5050737;28;20545;-75
2023/01/29 04:36:08;;;;;;;11.87;7.23;;;;;;;2.10;86.17;95003.31;5051547;28;20437;-75
2023/01/29 04:39:07;;;;;;;7.57;5.28;;;;;;;2.17;86.36;95008.69;5051200;28;20411;-75
2023/01/29 04:41:35;;;;;;;7.88;5.15;;;;;;;2.11;85.46;95014.50;5046851;28;20513;-75
2023/01/29 04:44:15;;;;;;;9.17;4.70;;;;;;;2.06;85.98;95006.38;5070434;28;20257;-75
2023/01/29 04:47:05;;;;;;;12.43;7.32;;;;;;;1.88;85.93;95011.63;5070750;28;20402;-75
2023/01/29 04:49:45;;;;;;;9.17;5.90;;;;;;;1.90;86.97;95012.31;5072086;28;20178;-75
2023/01/29 04:52:22;;;;;;;8.93;5.83;;;;;;;1.83;87.10;95006.09;5070915;28;20432;-75
2023/01/29 04:55:02;;;;;;;8.95;5.95;;;;;;;1.71;87.22;95008.13;5070727;28;20464;-75
2023/01/29 04:57:28;;;;;;;10.50;5.85;;;;;;;1.71;87.31;95010.72;5071133;28;20487;-75
2023/01/29 05:00:01;;;;;;;8.43;5.80;;;;;;;1.76;87.63;95013.69;5055919;28;20630;-75
2023/01/29 05:02:28;;;;;;;10.63;6.40;;;;;;;1.82;87.91;95010.47;5050944;28;20194;-75
2023/01/29 05:04:54;;;;;;;10.18;6.30;;;;;;;1.88;87.26;95014.25;5050196;28;20421;-75
2023/01/29 05:07:22;;;;;;;9.48;6.63;;;;;;;1.93;87.27;95011.16;5050186;28;20974;-75
2023/01/29 05:09:49;;;;;;;11.52;7.20;;;;;;;1.96;86.64;95009.09;5050094;28;20918;-75
2023/01/29 05:12:16;;;;;;;9.77;5.80;;;;;;;1.96;86.82;95011.69;5064710;28;20232;-75
2023/01/29 05:14:44;;;;;;;10.68;6.72;;;;;;;1.99;87.34;95015.75;5049978;28;20429;-74
2023/01/29 05:17:15;;;;;;;10.80;6.07;;;;;;;2.05;87.16;95021.16;5058120;28;20239;-75
2023/01/29 05:19:41;;;;;;;20.05;9.60;;;;;;;2.02;87.28;95010.25;5052163;28;20403;-74
2023/01/29 05:22:10;;;;;;;12.23;6.07;;;;;;;2.07;86.49;95021.00;5070615;28;20174;-75
2023/01/29 05:24:37;;;;;;;22.40;8.57;;;;;;;2.08;86.05;95025.19;5071248;28;20228;-75
2023/01/29 05:29:46;;;;;;;24.92;9.55;;;;;;;2.02;86.21;95026.63;5051767;28;20380;-74
2023/01/29 05:32:13;;;;;;;20.10;8.50;;;;;;;2.03;86.43;95030.84;5052447;28;20202;-74
2023/01/29 05:34:38;;;;;;;19.83;8.67;;;;;;;2.00;86.05;95030.34;5062160;28;20634;-75
2023/01/29 05:37:04;;;;;;;23.90;9.17;;;;;;;2.01;86.28;95035.38;5071022;28;20182;-75
2023/01/29 05:39:29;;;;;;;13.47;7.07;;;;;;;1.98;86.27;95035.72;5071001;28;20178;-75
2023/01/29 05:41:55;;;;;;;10.75;6.78;;;;;;;1.92;86.87;95035.50;5051883;28;20407;-75
2023/01/29 05:44:20;;;;;;;14.45;8.27;;;;;;;1.81;87.19;95034.81;5049997;28;20411;-75
2023/01/29 05:46:45;;;;;;;12.53;7.93;;;;;;;1.51;88.20;95038.63;5048230;28;20407;-75
2023/01/29 05:49:11;;;;;;;12.43;7.63;;;;;;;1.64;88.16;95035.66;5064596;28;20411;-75
2023/01/29 05:51:37;;;;;;;14.57;7.40;;;;;;;1.76;88.42;95038.81;5070846;28;20178;-74
2023/01/29 05:54:03;;;;;;;10.43;6.83;;;;;;;1.87;87.92;95047.16;5059106;28;20240;-75
2023/01/29 05:56:28;;;;;;;10.93;7.57;;;;;;;1.88;87.47;95037.59;5048643;28;20442;-75
2023/01/29 05:58:55;;;;;;;10.98;6.90;;;;;;;2.00;87.92;95048.50;5057060;28;20404;-75
2023/01/29 06:01:23;;;;;;;11.85;7.28;;;;;;;1.95;87.15;95046.38;5058691;28;20444;-75
2023/01/29 06:03:49;;;;;;;13.03;7.93;;;;;;;1.93;87.42;95050.91;5057668;28;20185;-75
2023/01/29 06:06:15;;;;;;;11.13;6.90;;;;;;;1.94;87.42;95049.13;5055422;28;20175;-75
2023/01/29 06:08:41;;;;;;;15.03;7.13;;;;;;;1.93;87.65;95050.09;5050405;28;20182;-74
2023/01/29 06:11:08;;;;;;;11.93;7.40;;;;;;;1.94;87.49;95049.13;5057262;28;20397;-74
2023/01/29 06:13:33;;;;;;;10.25;6.80;;;;;;;1.89;87.79;95058.22;5069447;28;20398;-75
2023/01/29 06:15:59;;;;;;;11.17;7.03;;;;;;;1.94;87.78;95064.72;5070060;28;20225;-74
2023/01/29 06:18:24;;;;;;;12.30;8.37;;;;;;;2.00;87.80;95072.69;5069074;28;20417;-74
2023/01/29 06:20:50;;;;;;;14.63;9.47;;;;;;;2.06;87.10;95066.91;5068956;28;20412;-74
2023/01/29 06:23:15;;;;;;;13.40;7.77;;;;;;;2.06;87.17;95076.47;5054552;28;20524;-75
2023/01/29 06:25:41;;;;;;;15.43;9.00;;;;;;;2.08;87.85;95079.72;5059637;28;20575;-74
2023/01/29 06:28:06;;;;;;;13.73;8.40;;;;;;;2.04;87.22;95078.41;5059370;28;20264;-74
2023/01/29 06:30:31;;;;;;;14.88;8.57;;;;;;;1.92;87.51;95083.03;5050117;28;20494;-75
2023/01/29 06:32:58;;;;;;;14.27;8.27;;;;;;;1.97;87.86;95087.78;5066877;28;20239;-73
2023/01/29 06:35:24;;;;;;;13.50;7.77;;;;;;;1.95;88.24;95092.28;5061879;28;20202;-75
2023/01/29 06:37:50;;;;;;;14.30;8.70;;;;;;;2.00;87.81;95090.03;5054763;28;20643;-76
2023/01/29 06:40:15;;;;;;;12.03;6.80;;;;;;;2.05;87.20;95098.22;5050305;28;20179;-75
2023/01/29 06:42:41;;;;;;;13.00;8.23;;;;;;;2.11;87.81;95098.41;5050461;28;20167;-74
2023/01/29 06:45:07;;;;;;;16.27;8.37;;;;;;;2.12;87.44;95091.44;5054247;28;20635;-74
2023/01/29 06:47:32;;;;;;;17.23;8.97;;;;;;;2.07;88.11;95080.69;5068869;28;20652;-74
2023/01/29 06:49:57;;;;;;;15.53;9.27;;;;;;;2.22;88.13;95095.56;5055374;28;20175;-75
2023/01/29 06:52:27;;;;;;;17.17;9.67;;;;;;;2.17;87.89;95090.00;5052053;28;20172;-74
2023/01/29 06:54:53;;;;;;;22.77;12.43;;;;;;;2.29;87.44;95103.53;5053993;28;20195;-74
2023/01/29 06:57:18;;;;;;;21.27;12.10;;;;;;;2.28;86.87;95096.72;5058122;28;20170;-75
2023/01/29 06:59:44;;;;;;;17.37;10.20;;;;;;;2.35;86.85;95105.50;5073932;28;20541;-76
2023/01/29 07:02:09;;;;;;;19.13;11.47;;;;;;;2.40;86.59;95103.28;5073616;28;20599;-76
2023/01/29 07:04:36;;;;;;;20.53;11.63;;;;;;;2.33;86.65;95106.66;5062647;28;20170;-74
2023/01/29 07:07:02;;;;;;;22.20;12.13;;;;;;;2.37;87.05;95113.16;5053438;28;20216;-75
2023/01/29 07:09:27;;;;;;;22.87;12.17;;;;;;;2.42;87.16;95121.31;5052699;28;20175;-75
2023/01/29 07:11:54;;;;;;;17.23;9.53;;;;;;;2.45;87.10;95120.97;5062320;28;20253;-75
2023/01/29 07:14:19;;;;;;;17.50;10.07;;;;;;;2.44;86.56;95114.16;5073586;28;20177;-74
2023/01/29 07:16:45;;;;;;;17.17;11.10;;;;;;;2.47;86.47;95125.06;5073202;28;20636;-74
2023/01/29 07:19:10;;;;;;;18.07;10.70;;;;;;;2.44;86.66;95130.56;5073756;28;20234;-73
2023/01/29 07:21:36;;;;;;;22.87;11.73;;;;;;;2.43;86.94;95134.13;5073461;28;20923;-74
2023/01/29 07:24:02;;;;;;;19.40;11.23;;;;;;;2.43;86.65;95134.13;5053508;28;20179;-74
2023/01/29 07:26:27;;;;;;;17.63;8.90;;;;;;;2.51;86.22;95134.16;5064860;28;20335;-74
2023/01/29 07:28:53;;;;;;;18.57;10.07;;;;;;;2.47;86.31;95134.63;5064016;28;20225;-74
2023/01/29 07:31:18;;;;;;;24.73;12.47;;;;;;;2.52;86.15;95135.78;5065119;28;20182;-74
2023/01/29 07:33:44;;;;;;;24.20;13.10;;;;;;;2.52;85.79;95135.78;5073388;28;20641;-74
2023/01/29 07:36:10;;;;;;;17.27;9.93;;;;;;;2.50;85.95;95136.94;5066897;28;20199;-74
2023/01/29 07:38:36;;;;;;;13.20;8.20;;;;;;;2.35;86.15;95139.28;5065053;28;20174;-74
2023/01/29 07:41:01;;;;;;;15.87;8.90;;;;;;;2.40;86.24;95144.03;5057689;28;20171;-74
2023/01/29 07:43:26;;;;;;;19.33;10.87;;;;;;;2.48;86.13;95137.09;5055177;28;20178;-74
2023/01/29 07:45:52;;;;;;;20.20;11.00;;;;;;;2.45;86.89;95139.16;5052921;28;20171;-74
2023/01/29 07:48:18;;;;;;;17.87;10.70;;;;;;;2.53;86.59;95150.41;5052641;28;20267;-74
2023/01/29 07:50:43;;;;;;;18.57;10.10;;;;;;;2.58;86.41;95139.56;5072913;28;20174;-74
2023/01/29 07:53:13;;;;;;;15.67;10.90;;;;;;;2.61;86.16;95144.44;5058901;28;20174;-74
2023/01/29 07:55:40;;;;;;;15.67;9.30;;;;;;;2.69;86.01;95146.25;5054091;28;20203;-74
2023/01/29 07:58:05;;;;;;;15.47;9.17;;;;;;;2.75;85.25;95143.06;5069574;28;20175;-74
2023/01/29 08:00:31;;;;;;;16.83;9.30;;;;;;;2.80;85.00;95151.19;5068146;28;20244;-74
2023/01/29 08:03:10;;;;;;;18.13;9.87;;;;;;;2.80;84.66;95153.78;5053402;28;20182;-74
2023/01/29 08:05:36;;;;;;;20.03;10.07;;;;;;;2.86;84.43;95155.75;5062610;28;20580;-74
2023/01/29 08:08:02;;;;;;;15.07;9.30;;;;;;;2.84;84.63;95162.94;5058135;28;20179;-74
2023/01/29 08:10:28;;;;;;;14.27;9.13;;;;;;;2.82;84.46;95157.06;5052325;28;20179;-74
2023/01/29 08:12:59;;;;;;;16.20;9.80;;;;;;;2.83;84.33;95156.91;5059464;28;20185;-74
2023/01/29 08:15:25;;;;;;;17.80;11.03;;;;;;;2.81;83.86;95161.44;5063303;28;20222;-74
2023/01/29 08:17:51;;;;;;;15.90;9.60;;;;;;;2.81;83.85;95158.84;5052897;28;20175;-74
2023/01/29 08:20:18;;;;;;;16.03;9.37;;;;;;;2.75;83.98;95159.47;5052547;28;20190;-74
2023/01/29 08:22:43;;;;;;;20.87;10.27;;;;;;;2.82;84.01;95167.47;5052439;28;20202;-74
2023/01/29 08:25:09;;;;;;;13.50;7.43;;;;;;;2.82;83.39;95165.69;5052526;28;20641;-74
2023/01/29 08:27:35;;;;;;;14.43;7.53;;;;;;;2.66;83.49;95168.19;5051893;28;20233;-74
2023/01/29 08:30:00;;;;;;;13.27;7.93;;;;;;;2.64;84.14;95163.16;5064862;28;20189;-75
2023/01/29 08:32:25;;;;;;;18.90;10.20;;;;;;;2.69;84.33;95167.06;5044742;28;20233;-74
2023/01/29 08:34:51;;;;;;;19.97;10.53;;;;;;;2.75;84.36;95174.25;5052120;28;20199;-73
2023/01/29 08:37:16;;;;;;;17.73;10.03;;;;;;;2.79;83.45;95178.16;5050502;28;20179;-74
2023/01/29 08:39:42;;;;;;;18.13;10.43;;;;;;;2.73;83.89;95178.78;5049064;28;20645;-74
2023/01/29 08:42:07;;;;;;;14.83;8.67;;;;;;;2.62;83.99;95165.09;5052018;28;20187;-74
2023/01/29 08:44:33;;;;;;;12.70;7.73;;;;;;;2.67;83.67;95176.81;5051971;28;20213;-74
2023/01/29 08:46:58;;;;;;;15.60;8.80;;;;;;;2.65;83.84;95176.97;5049816;28;20641;-74
2023/01/29 08:49:24;;;;;;;19.50;10.80;;;;;;;2.71;83.89;95184.13;5056431;28;20698;-74
2023/01/29 08:51:50;;;;;;;21.53;12.40;;;;;;;2.77;83.93;95187.91;5064907;28;20265;-74
2023/01/29 08:54:16;;;;;;;17.47;10.80;;;;;;;2.82;83.50;95190.84;5069737;28;20615;-73
2023/01/29 08:56:42;;;;;;;21.53;12.27;;;;;;;2.67;83.45;95187.22;5071307;28;20226;-73
2023/01/29 08:59:09;;;;;;;19.50;10.97;;;;;;;2.70;83.40;95197.28;5057682;28;20183;-73
2023/01/29 09:01:35;;;;;;;16.30;10.03;;;;;;;2.67;83.54;95198.41;5047236;28;20184;-74
2023/01/29 09:04:00;;;;;;;17.93;10.53;;;;;;;2.67;83.04;95201.03;5055923;28;20179;-75
2023/01/29 09:06:25;;;;;;;22.20;10.83;;;;;;;2.74;83.06;95202.03;5053721;28;20266;-73
2023/01/29 09:08:51;;;;;;;22.67;12.07;;;;;;;2.77;82.85;95190.50;5047516;28;20194;-72
2023/01/29 09:11:16;;;;;;;22.07;11.77;;;;;;;2.86;82.93;95203.38;5054657;28;20254;-74
2023/01/29 09:13:42;;;;;;;19.70;10.27;;;;;;;2.81;82.08;95184.03;5068660;28;20579;-74
2023/01/29 09:16:08;;;;;;;25.93;13.00;;;;;;;2.82;82.14;95186.47;5046736;28;20763;-74
2023/01/29 09:18:33;;;;;;;22.67;13.20;;;;;;;2.94;82.23;95190.41;5049839;28;20186;-74
2023/01/29 09:21:00;;;;;;;20.17;10.50;;;;;;;3.05;83.26;95197.13;5051273;28;20171;-74
2023/01/29 09:23:26;;;;;;;19.27;10.60;;;;;;;3.06;82.00;95193.56;5054562;28;20201;-74
2023/01/29 09:25:51;;;;;;;18.83;10.83;;;;;;;3.08;81.44;95196.00;5063516;28;20709;-72
2023/01/29 09:28:17;;;;;;;16.13;9.30;;;;;;;3.00;81.66;95196.78;5051074;28;20190;-73
2023/01/29 09:30:43;;;;;;;18.47;9.80;;;;;;;3.03;81.55;95188.66;5051070;28;20167;-73
2023/01/29 09:33:08;;;;;;;13.73;7.80;;;;;;;2.96;81.29;95195.47;5049777;28;20281;-73
2023/01/29 09:35:33;;;;;;;17.03;8.60;;;;;;;2.99;81.13;95190.78;5050936;28;20714;-73
2023/01/29 09:37:59;;;;;;;19.47;10.13;;;;;;;3.01;81.54;95185.44;5050909;28;20262;-73
2023/01/29 09:40:35;;;;;;;15.83;9.90;;;;;;;2.99;81.63;95182.16;5056640;28;20174;-73
2023/01/29 09:43:05;;;;;;;15.70;8.83;;;;;;;3.04;81.88;95183.31;5047954;28;20202;-73
2023/01/29 09:45:31;;;;;;;18.80;10.03;;;;;;;3.09;81.78;95182.84;5048559;28;20186;-73
2023/01/29 09:48:02;;;;;;;17.50;9.23;;;;;;;3.00;81.15;95183.78;5046799;28;20577;-74
2023/01/29 09:50:37;;;;;;;20.37;11.40;;;;;;;3.04;81.70;95192.88;5060818;28;20231;-74
2023/01/29 09:53:28;;;;;;;24.73;12.70;;;;;;;3.03;81.38;95180.84;5060773;28;20181;-72
2023/01/29 09:56:04;;;;;;;27.57;12.33;;;;;;;2.92;81.54;95175.97;5063859;28;20202;-73
2023/01/29 09:58:34;;;;;;;23.70;12.53;;;;;;;2.90;82.22;95183.09;5049455;28;20189;-74
2023/01/29 10:01:27;;;;;;;22.10;12.37;;;;;;;2.90;81.79;95178.72;5049654;28;20261;-74
2023/01/29 10:04:11;;;;;;;24.77;13.37;;;;;;;2.92;82.17;95184.56;5049506;28;20179;-74
2023/01/29 10:06:55;;;;;;;18.83;10.97;;;;;;;2.85;81.90;95175.78;5045494;28;20179;-74
2023/01/29 10:09:35;;;;;;;16.17;10.23;;;;;;;2.86;81.97;95169.56;5050274;28;20187;-74
2023/01/29 10:12:09;;;;;;;18.90;11.43;;;;;;;2.86;82.17;95168.75;5051965;28;20208;-74
2023/01/29 10:15:03;;;;;;;24.57;12.37;;;;;;;2.83;81.60;95167.31;5048768;28;20623;-74
2023/01/29 10:17:34;;;;;;;25.20;14.07;;;;;;;2.87;82.24;95170.41;5062079;28;20171;-74
2023/01/29 10:20:18;;;;;;;25.27;14.07;;;;;;;2.82;82.48;95167.47;5058481;28;20210;-74
2023/01/29 10:23:08;;;;;;;21.37;11.70;;;;;;;2.86;82.73;95161.78;5053978;28;20171;-74
2023/01/29 10:25:38;;;;;;;24.10;13.23;;;;;;;2.78;82.05;95151.34;5068176;28;20174;-75
2023/01/29 10:28:23;;;;;;;23.60;13.30;;;;;;;2.88;82.39;95162.44;5065465;28;20175;-75
2023/01/29 10:30:53;;;;;;;19.80;12.10;;;;;;;2.82;82.52;95155.28;5056889;28;20599;-74
2023/01/29 10:33:37;;;;;;;18.00;10.37;;;;;;;2.82;82.62;95157.06;5048381;28;20270;-75
2023/01/29 10:36:09;;;;;;;23.73;12.37;;;;;;;2.82;82.24;95149.25;5050312;28;20298;-75
2023/01/29 10:38:47;;;;;;;21.23;11.40;;;;;;;2.78;82.76;95153.13;5048558;28;20203;-75
2023/01/29 10:41:45;;;;;;;21.03;12.40;;;;;;;2.77;82.60;95146.34;5060523;28;20163;-75
2023/01/29 10:44:32;;;;;;;19.50;10.27;;;;;;;2.80;81.97;95151.19;5048450;28;20242;-74
2023/01/29 10:47:33;;;;;;;21.27;11.07;;;;;;;2.75;82.42;95154.28;5053702;28;20171;-73
2023/01/29 10:50:18;;;;;;;24.77;12.30;;;;;;;2.74;82.79;95147.44;5068976;28;20162;-75
2023/01/29 10:52:43;;;;;;;25.57;13.23;;;;;;;2.73;83.28;95143.22;5060938;28;20171;-75
2023/01/29 10:55:11;;;;;;;22.27;10.63;;;;;;;2.80;82.60;95139.00;5058287;28;20592;-75
2023/01/29 10:58:01;;;;;;;25.83;13.80;;;;;;;2.76;82.35;95142.91;5054243;28;20196;-74
2023/01/29 11:00:36;;;;;;;16.70;10.17;;;;;;;2.56;82.85;95142.31;5072759;28;20182;-74
2023/01/29 11:03:26;;;;;;;23.53;12.50;;;;;;;2.46;83.32;95131.22;5053392;28;20175;-74
2023/01/29 11:06:00;;;;;;;25.73;12.37;;;;;;;2.56;83.60;95133.72;5052138;28;20241;-75
2023/01/29 11:08:40;;;;;;;22.10;11.60;;;;;;;2.50;83.50;95132.56;5045890;28;20189;-74
2023/01/29 11:11:17;;;;;;;26.83;14.53;;;;;;;2.61;83.83;95136.66;5052267;28;20194;-74
2023/01/29 11:14:07;;;;;;;23.90;12.20;;;;;;;2.57;83.78;95133.56;5053816;28;20289;-75
2023/01/29 11:16:47;;;;;;;26.00;13.97;;;;;;;2.57;83.80;95124.97;5049355;28;20614;-74
2023/01/29 11:19:13;;;;;;;24.47;12.70;;;;;;;2.73;83.36;95126.81;5043186;28;20171;-74
2023/01/29 11:21:59;;;;;;;20.50;11.20;;;;;;;2.78;83.33;95117.56;5052033;28;20171;-74
2023/01/29 11:24:26;;;;;;;24.27;12.20;;;;;;;2.91;83.42;95120.53;5052192;28;20251;-74
2023/01/29 11:26:56;;;;;;;24.37;12.57;;;;;;;3.01;82.93;95117.81;5066903;28;20175;-75
2023/01/29 11:29:41;;;;;;;24.53;12.87;;;;;;;3.11;81.89;95121.09;5053863;28;20179;-75
2023/01/29 11:32:12;;;;;;;26.67;14.57;;;;;;;3.08;82.46;95116.22;5052133;28;20178;-75
2023/01/29 11:35:02;;;;;;;30.87;14.73;;;;;;;3.18;82.25;95114.28;5049664;28;20172;-75
2023/01/29 11:37:40;;;;;;;29.30;16.17;;;;;;;3.19;81.90;95099.50;5047843;28;20171;-75
2023/01/29 11:40:17;;;;;;;28.90;15.47;;;;;;;3.35;81.46;95096.94;5051702;28;20725;-75
2023/01/29 11:42:45;;;;;;;24.60;13.87;;;;;;;3.28;81.37;95091.56;5053903;28;20174;-75
2023/01/29 11:45:19;;;;;;;24.87;13.27;;;;;;;3.41;81.69;95094.50;5053490;28;20254;-75
2023/01/29 11:47:54;;;;;;;27.97;13.73;;;;;;;3.59;82.19;95091.75;5053291;28;20169;-76
2023/01/29 11:50:24;;;;;;;29.03;13.93;;;;;;;3.70;80.08;95099.22;5057770;28;20174;-75
2023/01/29 11:52:50;;;;;;;23.67;13.17;;;;;;;3.56;79.46;95084.25;5065854;28;20178;-75
2023/01/29 11:55:36;;;;;;;21.60;11.20;;;;;;;3.40;79.74;95081.63;5073433;28;20228;-75
2023/01/29 11:58:17;;;;;;;22.47;10.97;;;;;;;3.39;80.44;95093.84;5066997;28;20278;-75
2023/01/29 12:00:47;;;;;;;20.90;10.40;;;;;;;3.30;80.78;95094.78;5053284;28;20179;-75
2023/01/29 12:03:21;;;;;;;19.23;10.70;;;;;;;3.41;80.99;95086.69;5055459;28;20186;-75
2023/01/29 12:05:56;;;;;;;19.20;10.33;;;;;;;3.50;80.18;95082.31;5066332;28;20649;-74
2023/01/29 12:08:23;;;;;;;20.97;11.17;;;;;;;3.62;80.04;95094.03;5049951;28;20692;-75
2023/01/29 12:10:49;;;;;;;20.20;11.03;;;;;;;3.72;79.71;95086.03;5054966;28;20171;-75
2023/01/29 12:13:14;;;;;;;18.93;10.70;;;;;;;3.80;79.28;95080.84;5055951;28;20239;-75
2023/01/29 12:15:41;;;;;;;23.23;12.40;;;;;;;3.78;79.64;95080.19;5058076;28;20306;-75
2023/01/29 12:18:20;;;;;;;17.97;9.27;;;;;;;3.81;79.04;95085.06;5052913;28;20205;-74